createdAt,value
2022-08-17T00:00:33.246Z,60.01
2022-08-17T00:03:06.085Z,59.54
2022-08-17T00:05:39.699Z,59.33
2022-08-17T00:08:06.687Z,59.61
2022-08-17T00:10:34.356Z,59.64
2022-08-17T00:13:11.691Z,59.67
2022-08-17T00:15:38.692Z,59.39
2022-08-17T00:18:58.300Z,59.28
2022-08-17T00:20:55.781Z,59.34
2022-08-17T00:23:23.170Z,59.17
2022-08-17T00:25:50.428Z,59.18
2022-08-17T00:28:18.202Z,59.22
2022-08-17T00:30:53.376Z,59.62
2022-08-17T00:33:28.509Z,60.00
2022-08-17T00:35:58.447Z,60.12
2022-08-17T00:38:27.327Z,60.65
2022-08-17T00:41:02.079Z,60.31
2022-08-17T00:43:31.896Z,60.04
2022-08-17T00:46:05.469Z,60.13
2022-08-17T00:48:32.888Z,60.72
2022-08-17T00:51:11.800Z,60.89
2022-08-17T00:53:47.484Z,61.14
2022-08-17T00:56:25.854Z,61.46
2022-08-17T00:58:55.475Z,61.44
2022-08-17T01:01:23.011Z,61.62
2022-08-17T01:03:53.323Z,61.41
2022-08-17T01:06:24.708Z,61.22
2022-08-17T01:08:57.353Z,61.72
2022-08-17T01:11:24.931Z,61.70
2022-08-17T01:13:51.415Z,61.96
2022-08-17T01:16:26.777Z,62.10
2022-08-17T01:19:05.184Z,62.48
2022-08-17T01:21:54.597Z,62.25
2022-08-17T01:24:21.982Z,62.36
2022-08-17T01:26:48.599Z,62.28
2022-08-17T01:29:16.520Z,62.40
2022-08-17T01:31:53.348Z,62.60
2022-08-17T01:34:20.899Z,62.34
2022-08-17T01:36:49.728Z,62.17
2022-08-17T01:39:28.184Z,61.97
2022-08-17T01:42:06.232Z,61.89
2022-08-17T01:44:33.152Z,62.06
2022-08-17T01:46:59.930Z,62.26
2022-08-17T01:49:27.757Z,62.66
2022-08-17T01:51:55.067Z,62.97
2022-08-17T01:54:24.871Z,63.60
2022-08-17T01:56:52.755Z,63.75
2022-08-17T01:59:20.386Z,63.51
2022-08-17T02:01:47.843Z,63.60
2022-08-17T02:04:16.403Z,63.67
2022-08-17T02:06:52.545Z,63.61
2022-08-17T02:09:27.171Z,63.27
2022-08-17T02:12:00.295Z,63.19
2022-08-17T02:14:46.916Z,63.08
2022-08-17T02:17:13.485Z,63.01
2022-08-17T02:19:40.403Z,62.76
2022-08-17T02:22:06.923Z,62.90
2022-08-17T02:25:00.160Z,62.89
2022-08-17T02:27:24.699Z,62.92
2022-08-17T02:29:51.253Z,63.22
2022-08-17T02:32:27.419Z,62.89
2022-08-17T02:34:57.167Z,63.11
2022-08-17T02:37:25.516Z,63.16
2022-08-17T02:39:52.450Z,63.03
2022-08-17T02:42:26.186Z,62.86
2022-08-17T02:44:52.721Z,62.88
2022-08-17T02:47:19.290Z,62.85
2022-08-17T02:49:55.545Z,62.85
2022-08-17T02:52:42.979Z,62.86
2022-08-17T02:55:19.445Z,62.91
2022-08-17T02:57:47.961Z,62.78
2022-08-17T03:00:34.570Z,62.87
2022-08-17T03:03:04.136Z,63.02
2022-08-17T03:05:34.458Z,63.19
2022-08-17T03:08:01.748Z,63.82
2022-08-17T03:10:29.671Z,63.92
2022-08-17T03:12:56.834Z,63.80
2022-08-17T03:15:28.002Z,63.34
2022-08-17T03:17:56.651Z,63.57
2022-08-17T03:20:26.488Z,63.71
2022-08-17T03:23:02.915Z,64.08
2022-08-17T03:25:44.159Z,64.38
2022-08-17T03:28:12.041Z,64.50
2022-08-17T03:30:40.020Z,64.28
2022-08-17T03:33:10.061Z,64.28
2022-08-17T03:35:40.208Z,64.53
2022-08-17T03:38:12.380Z,64.28
2022-08-17T03:40:57.565Z,64.60
2022-08-17T03:43:30.564Z,64.83
2022-08-17T03:46:27.775Z,64.41
2022-08-17T03:49:17.739Z,64.13
2022-08-17T03:52:03.125Z,63.57
2022-08-17T03:54:48.339Z,64.11
2022-08-17T03:57:14.910Z,64.44
2022-08-17T03:59:42.864Z,64.34
2022-08-17T04:02:21.087Z,63.91
2022-08-17T04:04:50.807Z,64.05
2022-08-17T04:07:20.740Z,63.51
2022-08-17T04:09:47.697Z,63.64
2022-08-17T04:12:18.093Z,63.55
2022-08-17T04:14:52.322Z,63.50
2022-08-17T04:17:22.417Z,63.58
2022-08-17T04:19:49.005Z,63.83
2022-08-17T04:22:32.445Z,63.81
2022-08-17T04:25:18.603Z,64.28
2022-08-17T04:27:45.146Z,64.60
2022-08-17T04:30:13.243Z,64.53
2022-08-17T04:33:09.852Z,65.05
2022-08-17T04:35:41.609Z,64.88
2022-08-17T04:38:13.020Z,65.02
2022-08-17T04:40:58.033Z,64.85
2022-08-17T04:43:28.294Z,65.08
2022-08-17T04:46:01.281Z,64.83
2022-08-17T04:48:37.398Z,64.68
2022-08-17T04:51:09.897Z,65.81
2022-08-17T04:53:39.562Z,64.80
2022-08-17T04:56:06.521Z,64.74
2022-08-17T04:58:33.404Z,64.59
2022-08-17T05:01:00.456Z,64.43
2022-08-17T05:03:27.791Z,63.96
2022-08-17T05:05:54.362Z,63.95
2022-08-17T05:08:22.062Z,64.05
2022-08-17T05:10:49.081Z,64.22
2022-08-17T05:13:21.338Z,63.82
2022-08-17T05:15:52.752Z,63.52
2022-08-17T05:18:19.274Z,63.46
2022-08-17T05:20:45.851Z,63.25
2022-08-17T05:23:17.055Z,62.89
2022-08-17T05:25:48.227Z,62.72
2022-08-17T05:28:23.513Z,62.77
2022-08-17T05:30:56.895Z,62.57
2022-08-17T05:33:31.896Z,62.67
2022-08-17T05:36:01.211Z,62.55
2022-08-17T05:38:30.655Z,62.25
2022-08-17T05:40:58.246Z,62.28
2022-08-17T05:43:31.457Z,62.48
2022-08-17T05:46:20.343Z,62.13
2022-08-17T05:48:52.743Z,62.01
2022-08-17T05:51:59.778Z,62.09
2022-08-17T05:54:48.860Z,61.81
2022-08-17T05:57:53.784Z,61.92
2022-08-17T06:00:30.158Z,61.84
2022-08-17T06:03:09.223Z,61.70
2022-08-17T06:05:59.768Z,61.72
2022-08-17T06:08:59.698Z,61.74
2022-08-17T06:11:45.711Z,61.38
2022-08-17T06:14:35.432Z,61.29
2022-08-17T06:17:09.415Z,61.07
2022-08-17T06:20:05.605Z,60.89
2022-08-17T06:22:44.655Z,60.64
2022-08-17T06:25:26.212Z,60.56
2022-08-17T06:28:08.208Z,60.59
2022-08-17T06:30:59.507Z,60.44
2022-08-17T06:33:37.507Z,60.44
2022-08-17T06:36:09.541Z,61.05
2022-08-17T06:39:28.034Z,60.63
2022-08-17T06:43:02.618Z,61.33
2022-08-17T06:45:28.723Z,61.03
2022-08-17T06:48:02.695Z,60.77
2022-08-17T06:50:49.801Z,60.57
2022-08-17T06:53:42.875Z,60.36
2022-08-17T06:56:18.159Z,59.96
2022-08-17T06:58:45.432Z,59.42
2022-08-17T07:01:26.687Z,58.95
2022-08-17T07:04:12.025Z,58.65
2022-08-17T07:06:53.012Z,57.80
2022-08-17T07:09:35.434Z,56.64
2022-08-17T07:12:16.612Z,56.32
2022-08-17T07:14:56.797Z,55.92
2022-08-17T07:17:46.814Z,55.54
2022-08-17T07:20:20.505Z,55.35
2022-08-17T07:23:04.652Z,54.91
2022-08-17T07:25:31.585Z,54.92
2022-08-17T07:28:06.091Z,54.48
2022-08-17T07:30:48.823Z,53.97
2022-08-17T07:33:28.625Z,53.73
2022-08-17T07:35:58.057Z,53.56
2022-08-17T07:38:30.282Z,53.43
2022-08-17T07:41:03.476Z,53.08
2022-08-17T07:43:52.698Z,52.52
2022-08-17T07:47:07.574Z,52.66
2022-08-17T07:49:39.081Z,52.26
2022-08-17T07:52:51.009Z,51.70
2022-08-17T07:55:29.900Z,51.67
2022-08-17T07:58:00.095Z,51.79
2022-08-17T08:00:32.205Z,51.25
2022-08-17T08:03:21.728Z,51.23
2022-08-17T08:06:01.180Z,50.89
2022-08-17T08:08:42.524Z,51.13
2022-08-17T08:11:28.185Z,51.09
2022-08-17T08:13:54.816Z,51.25
2022-08-17T08:16:27.450Z,51.03
2022-08-17T08:18:59.443Z,50.67
2022-08-17T08:21:55.046Z,49.73
2022-08-17T08:24:55.196Z,49.45
2022-08-17T08:28:07.879Z,48.83
2022-08-17T08:30:46.568Z,48.88
2022-08-17T08:33:20.069Z,48.31
2022-08-17T08:35:55.442Z,49.05
2022-08-17T08:38:57.262Z,48.23
2022-08-17T08:41:45.109Z,48.71
2022-08-17T08:45:01.052Z,48.52
2022-08-17T08:47:49.193Z,46.41
2022-08-17T08:50:38.632Z,47.14
2022-08-17T08:53:18.830Z,47.73
2022-08-17T08:55:58.906Z,47.13
2022-08-17T08:58:41.830Z,47.20
2022-08-17T09:01:44.911Z,47.05
2022-08-17T09:04:25.852Z,47.71
2022-08-17T09:07:18.844Z,47.78
2022-08-17T09:10:29.343Z,48.08
2022-08-17T09:13:38.876Z,47.83
2022-08-17T09:16:16.323Z,47.47
2022-08-17T09:19:02.699Z,47.45
2022-08-17T09:21:55.066Z,47.15
2022-08-17T09:24:46.412Z,46.48
2022-08-17T09:27:28.694Z,46.89
2022-08-17T09:30:07.539Z,46.48
2022-08-17T09:32:43.917Z,46.00
2022-08-17T09:35:32.875Z,46.21
2022-08-17T09:38:40.414Z,46.74
2022-08-17T09:41:23.891Z,46.96
2022-08-17T09:44:23.254Z,47.30
2022-08-17T09:47:07.979Z,48.02
2022-08-17T09:50:01.406Z,48.31
2022-08-17T09:52:31.427Z,49.21
2022-08-17T09:55:01.142Z,49.55
2022-08-17T09:57:55.281Z,49.55
2022-08-17T10:00:30.423Z,49.86
2022-08-17T10:03:37.132Z,49.79
2022-08-17T10:06:23.080Z,48.76
2022-08-17T10:09:07.377Z,47.80
2022-08-17T10:12:13.738Z,46.24
2022-08-17T10:15:17.800Z,45.66
2022-08-17T10:18:03.916Z,44.97
2022-08-17T10:21:13.828Z,45.33
2022-08-17T10:24:03.511Z,45.43
2022-08-17T10:26:46.266Z,45.12
2022-08-17T10:29:49.114Z,44.68
2022-08-17T10:32:55.096Z,44.71
2022-08-17T10:35:36.834Z,44.65
2022-08-17T10:38:28.508Z,43.91
2022-08-17T10:41:21.033Z,43.93
2022-08-17T10:44:37.972Z,43.25
2022-08-17T10:47:14.426Z,43.43
2022-08-17T10:49:49.400Z,43.58
2022-08-17T10:52:27.788Z,43.75
2022-08-17T10:54:58.298Z,44.05
2022-08-17T10:57:34.113Z,44.34
2022-08-17T11:00:09.352Z,44.24
2022-08-17T11:02:55.297Z,43.85
2022-08-17T11:05:50.216Z,43.73
2022-08-17T11:08:56.887Z,42.91
2022-08-17T11:11:50.910Z,42.62
2022-08-17T11:14:52.611Z,43.44
2022-08-17T11:17:36.564Z,43.37
2022-08-17T11:20:29.841Z,42.95
2022-08-17T11:23:14.596Z,43.00
2022-08-17T11:25:57.745Z,42.91
2022-08-17T11:28:35.832Z,42.58
2022-08-17T11:31:38.990Z,42.77
2022-08-17T11:34:18.758Z,42.13
2022-08-17T11:37:06.724Z,41.94
2022-08-17T11:40:03.266Z,42.16
2022-08-17T11:42:48.225Z,42.57
2022-08-17T11:45:45.111Z,42.97
2022-08-17T11:48:44.875Z,43.40
2022-08-17T11:51:34.070Z,42.80
2022-08-17T11:54:33.718Z,43.11
2022-08-17T11:57:27.452Z,42.60
2022-08-17T12:00:11.971Z,41.86
2022-08-17T12:02:48.818Z,41.84
2022-08-17T12:05:20.938Z,41.98
2022-08-17T12:07:56.691Z,41.76
2022-08-17T12:10:31.811Z,41.90
2022-08-17T12:13:13.008Z,41.47
2022-08-17T12:15:49.794Z,41.37
2022-08-17T12:18:28.526Z,40.51
2022-08-17T12:21:12.151Z,39.24
2022-08-17T12:23:56.743Z,39.69
2022-08-17T12:26:36.589Z,39.74
2022-08-17T12:29:18.111Z,39.41
2022-08-17T12:32:04.354Z,39.72
2022-08-17T12:34:41.463Z,39.53
2022-08-17T12:37:22.462Z,39.04
2022-08-17T12:40:02.076Z,38.21
2022-08-17T12:42:34.730Z,37.67
2022-08-17T12:45:01.281Z,37.47
2022-08-17T12:47:29.931Z,37.12
2022-08-17T12:50:28.882Z,37.49
2022-08-17T12:52:59.718Z,37.77
2022-08-17T12:55:36.172Z,38.19
2022-08-17T12:58:03.630Z,37.88
2022-08-17T13:00:47.424Z,37.58
2022-08-17T13:03:27.744Z,36.93
2022-08-17T13:06:08.448Z,37.12
2022-08-17T13:08:47.836Z,37.21
2022-08-17T13:11:14.477Z,36.84
2022-08-17T13:13:45.424Z,35.71
2022-08-17T13:16:11.834Z,35.30
2022-08-17T13:18:49.838Z,35.74
2022-08-17T13:21:19.355Z,35.76
2022-08-17T13:24:10.109Z,35.27
2022-08-17T13:27:02.349Z,35.57
2022-08-17T13:29:51.340Z,35.79
2022-08-17T13:32:45.636Z,35.63
2022-08-17T13:35:50.022Z,35.49
2022-08-17T13:38:49.431Z,35.16
2022-08-17T13:41:36.526Z,35.50
2022-08-17T13:44:39.382Z,35.08
2022-08-17T13:47:18.865Z,35.99
2022-08-17T13:49:49.224Z,35.73
2022-08-17T13:52:40.792Z,36.24
2022-08-17T13:55:19.512Z,35.89
2022-08-17T13:58:06.634Z,36.15
2022-08-17T14:00:36.662Z,36.44
2022-08-17T14:03:05.528Z,36.57
2022-08-17T14:05:32.486Z,36.36
2022-08-17T14:08:02.480Z,35.86
2022-08-17T14:10:36.207Z,36.08
2022-08-17T14:13:03.439Z,36.15
2022-08-17T14:15:54.779Z,36.39
2022-08-17T14:18:35.495Z,36.36
2022-08-17T14:21:08.215Z,36.60
2022-08-17T14:23:36.603Z,36.57
2022-08-17T14:26:03.992Z,36.31
2022-08-17T14:28:30.519Z,36.52
2022-08-17T14:31:00.264Z,36.57
2022-08-17T14:33:28.859Z,37.01
2022-08-17T14:35:57.287Z,36.87
2022-08-17T14:38:23.800Z,36.76
2022-08-17T14:40:50.530Z,36.17
2022-08-17T14:43:18.398Z,35.96
2022-08-17T14:45:45.015Z,35.97
2022-08-17T14:48:11.779Z,35.87
2022-08-17T14:50:41.739Z,35.58
2022-08-17T14:53:13.310Z,35.87
2022-08-17T14:55:40.853Z,36.21
2022-08-17T14:58:09.004Z,36.72
2022-08-17T15:00:35.838Z,37.25
2022-08-17T15:03:03.764Z,37.57
2022-08-17T15:05:36.419Z,37.24
2022-08-17T15:08:05.405Z,38.15
2022-08-17T15:10:33.157Z,38.35
2022-08-17T15:13:00.442Z,39.19
2022-08-17T15:15:28.689Z,39.88
2022-08-17T15:17:55.681Z,39.83
2022-08-17T15:20:27.837Z,39.80
2022-08-17T15:22:57.231Z,39.65
2022-08-17T15:25:27.489Z,39.92
2022-08-17T15:27:55.717Z,40.10
2022-08-17T15:30:22.944Z,39.99
2022-08-17T15:32:51.174Z,40.32
2022-08-17T15:35:27.077Z,40.37
2022-08-17T15:37:54.313Z,41.08
2022-08-17T15:40:20.850Z,40.76
2022-08-17T15:42:47.378Z,40.20
2022-08-17T15:45:16.446Z,39.36
2022-08-17T15:47:43.230Z,39.79
2022-08-17T15:50:10.750Z,39.32
2022-08-17T15:52:40.199Z,39.36
2022-08-17T15:55:11.957Z,39.58
2022-08-17T15:57:39.888Z,39.79
2022-08-17T16:00:09.487Z,39.69
2022-08-17T16:03:45.925Z,39.80
2022-08-17T16:05:28.456Z,39.89
2022-08-17T16:07:59.441Z,39.95
2022-08-17T16:10:34.847Z,39.81
2022-08-17T16:13:03.859Z,39.93
2022-08-17T16:15:33.139Z,40.00
2022-08-17T16:17:59.751Z,39.91
2022-08-17T16:20:26.803Z,39.88
2022-08-17T16:22:54.838Z,39.82
2022-08-17T16:25:38.409Z,39.94
2022-08-17T16:28:18.409Z,39.96
2022-08-17T16:30:45.355Z,39.78
2022-08-17T16:33:12.535Z,40.07
2022-08-17T16:35:39.435Z,40.46
2022-08-17T16:38:07.207Z,40.61
2022-08-17T16:40:35.823Z,40.64
2022-08-17T16:43:06.940Z,40.90
2022-08-17T16:45:36.827Z,41.13
2022-08-17T16:48:04.327Z,41.07
2022-08-17T16:50:31.794Z,41.27
2022-08-17T16:53:11.705Z,41.38
2022-08-17T16:55:38.562Z,41.73
2022-08-17T16:58:06.789Z,41.75
2022-08-17T17:00:34.462Z,41.85
2022-08-17T17:03:19.451Z,42.00
2022-08-17T17:06:18.710Z,42.24
2022-08-17T17:09:02.434Z,42.34
2022-08-17T17:11:41.323Z,42.43
2022-08-17T17:14:21.919Z,42.58
2022-08-17T17:16:57.693Z,42.88
2022-08-17T17:19:35.864Z,42.81
2022-08-17T17:22:12.675Z,43.17
2022-08-17T17:25:15.911Z,43.36
2022-08-17T17:28:00.502Z,43.40
2022-08-17T17:30:45.481Z,43.33
2022-08-17T17:33:29.702Z,43.87
2022-08-17T17:36:10.351Z,44.00
2022-08-17T17:38:49.857Z,44.00
2022-08-17T17:41:26.882Z,44.07
2022-08-17T17:44:07.903Z,44.46
2022-08-17T17:46:43.658Z,44.57
2022-08-17T17:49:11.239Z,44.74
2022-08-17T17:52:07.642Z,44.84
2022-08-17T17:55:02.140Z,45.28
2022-08-17T17:58:08.941Z,45.44
2022-08-17T18:01:07.246Z,45.70
2022-08-17T18:03:55.839Z,46.15
2022-08-17T18:06:48.634Z,46.05
2022-08-17T18:09:43.407Z,46.69
2022-08-17T18:12:56.809Z,46.91
2022-08-17T18:15:36.988Z,46.47
2022-08-17T18:18:15.476Z,46.85
2022-08-17T18:20:55.925Z,46.73
2022-08-17T18:23:28.001Z,46.71
2022-08-17T18:25:56.334Z,46.88
2022-08-17T18:28:43.896Z,47.82
2022-08-17T18:31:20.383Z,47.70
2022-08-17T18:33:54.612Z,47.74
2022-08-17T18:36:36.377Z,48.39
2022-08-17T18:39:14.646Z,47.98
2022-08-17T18:41:45.588Z,48.15
2022-08-17T18:44:43.667Z,48.74
2022-08-17T18:47:29.375Z,48.83
2022-08-17T18:50:41.268Z,49.11
2022-08-17T18:53:33.445Z,48.81
2022-08-17T18:56:26.176Z,49.25
2022-08-17T18:59:09.539Z,49.18
2022-08-17T19:01:52.469Z,49.62
2022-08-17T19:04:35.550Z,49.42
2022-08-17T19:07:23.690Z,49.67
2022-08-17T19:10:16.265Z,50.61
2022-08-17T19:13:12.690Z,50.35
2022-08-17T19:16:13.990Z,50.91
2022-08-17T19:19:14.320Z,51.57
2022-08-17T19:21:53.036Z,51.43
2022-08-17T19:24:24.492Z,51.50
2022-08-17T19:27:13.956Z,51.74
2022-08-17T19:29:57.789Z,51.90
2022-08-17T19:32:30.716Z,52.02
2022-08-17T19:34:58.090Z,52.42
2022-08-17T19:38:12.773Z,52.68
2022-08-17T19:41:01.684Z,53.43
2022-08-17T19:44:14.092Z,53.58
2022-08-17T19:47:00.805Z,53.33
2022-08-17T19:50:08.408Z,54.40
2022-08-17T19:52:50.061Z,53.89
2022-08-17T19:55:59.798Z,54.30
2022-08-17T19:58:53.590Z,54.74
2022-08-17T20:01:43.242Z,54.76
2022-08-17T20:04:31.915Z,55.11
2022-08-17T20:07:09.215Z,55.11
2022-08-17T20:09:47.328Z,55.06
2022-08-17T20:12:20.840Z,54.87
2022-08-17T20:14:58.322Z,55.54
2022-08-17T20:17:35.189Z,55.39
2022-08-17T20:20:20.243Z,55.60
2022-08-17T20:22:59.071Z,56.30
2022-08-17T20:26:10.606Z,56.28
2022-08-17T20:28:41.373Z,56.33
2022-08-17T20:31:49.503Z,57.38
2022-08-17T20:34:34.867Z,57.68
2022-08-17T20:37:28.062Z,57.27
2022-08-17T20:39:57.648Z,57.18
2022-08-17T20:42:24.290Z,57.29
2022-08-17T20:45:26.282Z,57.53
2022-08-17T20:48:27.280Z,57.77
2022-08-17T20:50:55.945Z,58.21
2022-08-17T20:53:47.393Z,59.51
2022-08-17T20:56:43.356Z,60.31
2022-08-17T20:59:30.198Z,60.28
2022-08-17T21:02:18.566Z,59.70
2022-08-17T21:05:02.260Z,60.19
2022-08-17T21:07:42.870Z,60.12
2022-08-17T21:10:21.085Z,60.46
2022-08-17T21:13:13.294Z,59.77
2022-08-17T21:16:00.358Z,59.98
2022-08-17T21:19:08.449Z,60.66
2022-08-17T21:21:58.240Z,61.20
2022-08-17T21:25:20.269Z,61.54
2022-08-17T21:28:13.242Z,61.47
2022-08-17T21:30:39.805Z,61.07
2022-08-17T21:33:32.070Z,61.93
2022-08-17T21:36:14.163Z,61.03
2022-08-17T21:38:43.934Z,60.44
2022-08-17T21:41:29.764Z,61.07
2022-08-17T21:44:27.791Z,60.75
2022-08-17T21:47:25.951Z,61.14
2022-08-17T21:49:55.511Z,60.68
2022-08-17T21:52:27.443Z,60.93
2022-08-17T21:55:02.209Z,61.21
2022-08-17T21:57:30.835Z,61.48
2022-08-17T22:00:02.206Z,61.63
2022-08-17T22:02:35.256Z,61.29
2022-08-17T22:05:07.829Z,61.11
2022-08-17T22:07:59.801Z,61.24
2022-08-17T22:10:33.517Z,60.81
2022-08-17T22:13:17.034Z,61.88
2022-08-17T22:16:15.225Z,61.63
2022-08-17T22:18:53.953Z,62.01
2022-08-17T22:21:22.433Z,61.86
2022-08-17T22:24:21.655Z,62.53
2022-08-17T22:27:03.325Z,62.71
2022-08-17T22:29:58.516Z,62.48
2022-08-17T22:32:41.345Z,62.01
2022-08-17T22:35:32.456Z,62.42
2022-08-17T22:38:20.575Z,62.72
2022-08-17T22:40:52.717Z,62.06
2022-08-17T22:43:28.383Z,61.87
2022-08-17T22:46:00.140Z,61.81
2022-08-17T22:48:30.294Z,62.15
2022-08-17T22:51:14.210Z,62.83
2022-08-17T22:54:36.752Z,63.12
2022-08-17T22:57:24.044Z,62.54
2022-08-17T22:59:54.714Z,62.83
2022-08-17T23:02:27.085Z,62.75
2022-08-17T23:05:13.787Z,63.82
2022-08-17T23:07:42.495Z,63.25
2022-08-17T23:10:11.592Z,63.36
2022-08-17T23:12:39.707Z,63.04
2022-08-17T23:15:15.336Z,62.80
2022-08-17T23:17:42.413Z,63.01
2022-08-17T23:20:14.878Z,63.29
2022-08-17T23:22:52.131Z,63.56
2022-08-17T23:25:28.327Z,63.68
2022-08-17T23:27:57.253Z,63.48
2022-08-17T23:30:25.463Z,63.74
2022-08-17T23:32:54.332Z,63.82
2022-08-17T23:35:39.616Z,63.81
2022-08-17T23:38:13.462Z,63.82
2022-08-17T23:40:40.956Z,64.12
2022-08-17T23:43:17.650Z,64.71
2022-08-17T23:45:53.879Z,65.08
2022-08-17T23:48:32.482Z,65.05
2022-08-17T23:51:12.569Z,65.15
2022-08-17T23:53:46.216Z,64.95
2022-08-17T23:56:13.958Z,65.16
2022-08-17T23:58:43.310Z,65.17
